sensor_id;sensor_type;location;lat;lon;timestamp;temperature;humidity
5960;DHT22;3006;50.956;7.002;2022-12-18T00:00:05;-2.70;99.90
5960;DHT22;3006;50.956;7.002;2022-12-18T00:02:39;-2.60;99.90
5960;DHT22;3006;50.956;7.002;2022-12-18T00:05:07;-2.70;99.90
5960;DHT22;3006;50.956;7.002;2022-12-18T00:07:36;-2.70;99.90
5960;DHT22;3006;50.956;7.002;2022-12-18T00:10:05;-2.70;99.90
5960;DHT22;3006;50.956;7.002;2022-12-18T00:12:33;-2.70;99.90
5960;DHT22;3006;50.956;7.002;2022-12-18T00:15:03;-2.70;99.90
5960;DHT22;3006;50.956;7.002;2022-12-18T00:17:31;-2.60;99.90
5960;DHT22;3006;50.956;7.002;2022-12-18T00:20:00;-2.60;99.90
5960;DHT22;3006;50.956;7.002;2022-12-18T00:22:28;-2.60;99.90
5960;DHT22;3006;50.956;7.002;2022-12-18T00:24:56;-2.60;99.90
5960;DHT22;3006;50.956;7.002;2022-12-18T00:27:24;-2.60;99.90
5960;DHT22;3006;50.956;7.002;2022-12-18T00:29:51;-2.60;99.90
5960;DHT22;3006;50.956;7.002;2022-12-18T00:32:21;-2.70;99.90
5960;DHT22;3006;50.956;7.002;2022-12-18T00:34:49;-2.70;99.90
5960;DHT22;3006;50.956;7.002;2022-12-18T00:37:17;-2.70;99.90
5960;DHT22;3006;50.956;7.002;2022-12-18T00:39:50;-2.70;99.90
5960;DHT22;3006;50.956;7.002;2022-12-18T00:42:19;-2.70;99.90
5960;DHT22;3006;50.956;7.002;2022-12-18T00:45:05;-2.70;99.90
5960;DHT22;3006;50.956;7.002;2022-12-18T00:47:40;-2.70;99.90
5960;DHT22;3006;50.956;7.002;2022-12-18T00:50:09;-2.70;99.90
5960;DHT22;3006;50.956;7.002;2022-12-18T00:52:37;-2.70;99.90
5960;DHT22;3006;50.956;7.002;2022-12-18T00:55:05;-2.70;99.90
5960;DHT22;3006;50.956;7.002;2022-12-18T00:57:34;-2.70;99.90
5960;DHT22;3006;50.956;7.002;2022-12-18T01:00:04;-2.70;99.90
5960;DHT22;3006;50.956;7.002;2022-12-18T01:02:34;-2.70;99.90
5960;DHT22;3006;50.956;7.002;2022-12-18T01:05:05;-2.70;99.90
5960;DHT22;3006;50.956;7.002;2022-12-18T01:07:33;-2.70;99.90
5960;DHT22;3006;50.956;7.002;2022-12-18T01:10:03;-2.70;99.90
5960;DHT22;3006;50.956;7.002;2022-12-18T01:12:31;-2.70;99.90
5960;DHT22;3006;50.956;7.002;2022-12-18T01:14:59;-2.60;99.90
5960;DHT22;3006;50.956;7.002;2022-12-18T01:17:27;-2.70;99.90
5960;DHT22;3006;50.956;7.002;2022-12-18T01:19:55;-2.70;99.90
5960;DHT22;3006;50.956;7.002;2022-12-18T01:22:24;-2.70;99.90
5960;DHT22;3006;50.956;7.002;2022-12-18T01:24:52;-2.70;99.90
5960;DHT22;3006;50.956;7.002;2022-12-18T01:27:22;-2.70;99.90
5960;DHT22;3006;50.956;7.002;2022-12-18T01:29:51;-2.70;99.90
5960;DHT22;3006;50.956;7.002;2022-12-18T01:32:19;-2.70;99.90
5960;DHT22;3006;50.956;7.002;2022-12-18T01:34:47;-2.70;99.90
5960;DHT22;3006;50.956;7.002;2022-12-18T01:37:15;-2.70;99.90
5960;DHT22;3006;50.956;7.002;2022-12-18T01:39:44;-2.80;99.90
5960;DHT22;3006;50.956;7.002;2022-12-18T01:42:14;-2.70;99.90
5960;DHT22;3006;50.956;7.002;2022-12-18T01:44:58;-2.70;99.90
5960;DHT22;3006;50.956;7.002;2022-12-18T01:47:30;-2.80;99.90
5960;DHT22;3006;50.956;7.002;2022-12-18T01:50:01;-2.80;99.90
5960;DHT22;3006;50.956;7.002;2022-12-18T01:52:32;-2.80;99.90
5960;DHT22;3006;50.956;7.002;2022-12-18T01:55:04;-2.80;99.90
5960;DHT22;3006;50.956;7.002;2022-12-18T01:57:34;-2.90;99.90
5960;DHT22;3006;50.956;7.002;2022-12-18T02:00:05;-2.90;99.90
5960;DHT22;3006;50.956;7.002;2022-12-18T02:02:41;-2.90;99.90
5960;DHT22;3006;50.956;7.002;2022-12-18T02:05:10;-2.90;99.90
5960;DHT22;3006;50.956;7.002;2022-12-18T02:07:45;-2.80;99.90
5960;DHT22;3006;50.956;7.002;2022-12-18T02:10:23;-2.80;99.90
5960;DHT22;3006;50.956;7.002;2022-12-18T02:13:00;-2.90;99.90
5960;DHT22;3006;50.956;7.002;2022-12-18T02:15:37;-2.90;99.90
5960;DHT22;3006;50.956;7.002;2022-12-18T02:18:09;-3.00;99.90
5960;DHT22;3006;50.956;7.002;2022-12-18T02:20:43;-3.00;99.90
5960;DHT22;3006;50.956;7.002;2022-12-18T02:23:24;-3.00;99.90
5960;DHT22;3006;50.956;7.002;2022-12-18T02:26:07;-2.90;99.90
5960;DHT22;3006;50.956;7.002;2022-12-18T02:28:43;-3.00;99.90
5960;DHT22;3006;50.956;7.002;2022-12-18T02:31:16;-3.00;99.90
5960;DHT22;3006;50.956;7.002;2022-12-18T02:33:46;-3.00;99.90
5960;DHT22;3006;50.956;7.002;2022-12-18T02:36:16;-2.90;99.90
5960;DHT22;3006;50.956;7.002;2022-12-18T02:38:46;-2.90;99.90
5960;DHT22;3006;50.956;7.002;2022-12-18T02:41:18;-2.90;99.90
5960;DHT22;3006;50.956;7.002;2022-12-18T02:43:47;-2.90;99.90
5960;DHT22;3006;50.956;7.002;2022-12-18T02:46:31;-2.90;99.90
5960;DHT22;3006;50.956;7.002;2022-12-18T02:49:12;-2.90;99.90
5960;DHT22;3006;50.956;7.002;2022-12-18T02:51:48;-2.90;99.90
5960;DHT22;3006;50.956;7.002;2022-12-18T02:54:26;-3.00;99.90
5960;DHT22;3006;50.956;7.002;2022-12-18T02:57:05;-3.00;99.90
5960;DHT22;3006;50.956;7.002;2022-12-18T02:59:40;-3.00;99.90
5960;DHT22;3006;50.956;7.002;2022-12-18T03:02:15;-3.00;99.90
5960;DHT22;3006;50.956;7.002;2022-12-18T03:04:49;-3.10;99.90
5960;DHT22;3006;50.956;7.002;2022-12-18T03:07:26;-3.10;99.90
5960;DHT22;3006;50.956;7.002;2022-12-18T03:09:58;-3.00;99.90
5960;DHT22;3006;50.956;7.002;2022-12-18T03:12:31;-3.00;99.90
5960;DHT22;3006;50.956;7.002;2022-12-18T03:15:03;-2.90;99.90
5960;DHT22;3006;50.956;7.002;2022-12-18T03:17:33;-2.90;99.90
5960;DHT22;3006;50.956;7.002;2022-12-18T03:20:06;-2.90;99.90
5960;DHT22;3006;50.956;7.002;2022-12-18T03:22:36;-3.00;99.90
5960;DHT22;3006;50.956;7.002;2022-12-18T03:25:09;-3.00;99.90
5960;DHT22;3006;50.956;7.002;2022-12-18T03:27:42;-3.00;99.90
5960;DHT22;3006;50.956;7.002;2022-12-18T03:30:16;-3.00;99.90
5960;DHT22;3006;50.956;7.002;2022-12-18T03:32:47;-3.00;99.90
5960;DHT22;3006;50.956;7.002;2022-12-18T03:35:29;-2.90;99.90
5960;DHT22;3006;50.956;7.002;2022-12-18T03:37:58;-3.00;99.90
5960;DHT22;3006;50.956;7.002;2022-12-18T03:40:31;-3.00;99.90
5960;DHT22;3006;50.956;7.002;2022-12-18T03:43:07;-3.00;99.90
5960;DHT22;3006;50.956;7.002;2022-12-18T03:45:41;-3.00;99.90
5960;DHT22;3006;50.956;7.002;2022-12-18T03:48:17;-3.10;99.90
5960;DHT22;3006;50.956;7.002;2022-12-18T03:50:52;-3.10;99.90
5960;DHT22;3006;50.956;7.002;2022-12-18T03:53:31;-3.10;99.90
5960;DHT22;3006;50.956;7.002;2022-12-18T03:56:04;-3.10;99.90
5960;DHT22;3006;50.956;7.002;2022-12-18T03:58:39;-3.10;99.90
5960;DHT22;3006;50.956;7.002;2022-12-18T04:01:18;-3.10;99.90
5960;DHT22;3006;50.956;7.002;2022-12-18T04:03:48;-3.00;99.90
5960;DHT22;3006;50.956;7.002;2022-12-18T04:06:19;-3.00;99.90
5960;DHT22;3006;50.956;7.002;2022-12-18T04:08:48;-3.10;99.90
5960;DHT22;3006;50.956;7.002;2022-12-18T04:11:20;-3.20;99.90
5960;DHT22;3006;50.956;7.002;2022-12-18T04:13:49;-3.10;99.90
5960;DHT22;3006;50.956;7.002;2022-12-18T04:16:22;-3.10;99.90
5960;DHT22;3006;50.956;7.002;2022-12-18T04:18:53;-3.10;99.90
5960;DHT22;3006;50.956;7.002;2022-12-18T04:21:23;-3.10;99.90
5960;DHT22;3006;50.956;7.002;2022-12-18T04:23:52;-3.10;99.90
5960;DHT22;3006;50.956;7.002;2022-12-18T04:26:22;-3.10;99.90
5960;DHT22;3006;50.956;7.002;2022-12-18T04:29:14;-3.20;99.90
5960;DHT22;3006;50.956;7.002;2022-12-18T04:31:42;-3.20;99.90
5960;DHT22;3006;50.956;7.002;2022-12-18T04:34:11;-3.20;99.90
5960;DHT22;3006;50.956;7.002;2022-12-18T04:36:46;-3.20;99.90
5960;DHT22;3006;50.956;7.002;2022-12-18T04:39:15;-3.20;99.90
5960;DHT22;3006;50.956;7.002;2022-12-18T04:41:43;-3.30;99.90
5960;DHT22;3006;50.956;7.002;2022-12-18T04:44:14;-3.20;99.90
5960;DHT22;3006;50.956;7.002;2022-12-18T04:46:43;-3.20;99.90
5960;DHT22;3006;50.956;7.002;2022-12-18T04:49:11;-3.20;99.90
5960;DHT22;3006;50.956;7.002;2022-12-18T04:51:39;-3.20;99.90
5960;DHT22;3006;50.956;7.002;2022-12-18T04:54:07;-3.30;99.90
5960;DHT22;3006;50.956;7.002;2022-12-18T04:56:35;-3.20;99.90
5960;DHT22;3006;50.956;7.002;2022-12-18T04:59:03;-3.20;99.90
5960;DHT22;3006;50.956;7.002;2022-12-18T05:01:33;-3.30;99.90
5960;DHT22;3006;50.956;7.002;2022-12-18T05:04:02;-3.20;99.90
5960;DHT22;3006;50.956;7.002;2022-12-18T05:06:31;-3.20;99.90
5960;DHT22;3006;50.956;7.002;2022-12-18T05:08:59;-3.30;99.90
5960;DHT22;3006;50.956;7.002;2022-12-18T05:11:27;-3.30;99.90
5960;DHT22;3006;50.956;7.002;2022-12-18T05:13:55;-3.30;99.90
5960;DHT22;3006;50.956;7.002;2022-12-18T05:16:23;-3.30;99.90
5960;DHT22;3006;50.956;7.002;2022-12-18T05:18:52;-3.30;99.90
5960;DHT22;3006;50.956;7.002;2022-12-18T05:21:20;-3.30;99.90
5960;DHT22;3006;50.956;7.002;2022-12-18T05:23:48;-3.30;99.90
5960;DHT22;3006;50.956;7.002;2022-12-18T05:26:17;-3.30;99.90
5960;DHT22;3006;50.956;7.002;2022-12-18T05:28:45;-3.40;99.90
5960;DHT22;3006;50.956;7.002;2022-12-18T05:31:13;-3.40;99.90
5960;DHT22;3006;50.956;7.002;2022-12-18T05:33:42;-3.40;99.90
5960;DHT22;3006;50.956;7.002;2022-12-18T05:36:11;-3.30;99.90
5960;DHT22;3006;50.956;7.002;2022-12-18T05:38:40;-3.30;99.90
5960;DHT22;3006;50.956;7.002;2022-12-18T05:41:09;-3.30;99.90
5960;DHT22;3006;50.956;7.002;2022-12-18T05:43:38;-3.30;99.90
5960;DHT22;3006;50.956;7.002;2022-12-18T05:46:11;-3.40;99.90
5960;DHT22;3006;50.956;7.002;2022-12-18T05:48:39;-3.30;99.90
5960;DHT22;3006;50.956;7.002;2022-12-18T05:51:11;-3.30;99.90
5960;DHT22;3006;50.956;7.002;2022-12-18T05:53:39;-3.30;99.90
5960;DHT22;3006;50.956;7.002;2022-12-18T05:56:10;-3.30;99.90
5960;DHT22;3006;50.956;7.002;2022-12-18T05:58:38;-3.30;99.90
5960;DHT22;3006;50.956;7.002;2022-12-18T06:01:08;-3.30;99.90
5960;DHT22;3006;50.956;7.002;2022-12-18T06:03:36;-3.30;99.90
5960;DHT22;3006;50.956;7.002;2022-12-18T06:06:14;-3.30;99.90
5960;DHT22;3006;50.956;7.002;2022-12-18T06:08:42;-3.30;99.90
5960;DHT22;3006;50.956;7.002;2022-12-18T06:11:13;-3.30;99.90
5960;DHT22;3006;50.956;7.002;2022-12-18T06:13:41;-3.30;99.90
5960;DHT22;3006;50.956;7.002;2022-12-18T06:16:09;-3.30;99.90
5960;DHT22;3006;50.956;7.002;2022-12-18T06:18:37;-3.30;99.90
5960;DHT22;3006;50.956;7.002;2022-12-18T06:21:05;-3.30;99.90
5960;DHT22;3006;50.956;7.002;2022-12-18T06:23:35;-3.30;99.90
5960;DHT22;3006;50.956;7.002;2022-12-18T06:26:04;-3.30;99.90
5960;DHT22;3006;50.956;7.002;2022-12-18T06:28:33;-3.20;99.90
5960;DHT22;3006;50.956;7.002;2022-12-18T06:31:02;-3.20;99.90
5960;DHT22;3006;50.956;7.002;2022-12-18T06:33:31;-3.20;99.90
5960;DHT22;3006;50.956;7.002;2022-12-18T06:36:00;-3.30;99.90
5960;DHT22;3006;50.956;7.002;2022-12-18T06:38:29;-3.20;99.90
5960;DHT22;3006;50.956;7.002;2022-12-18T06:40:58;-3.30;99.90
5960;DHT22;3006;50.956;7.002;2022-12-18T06:43:27;-3.30;99.90
5960;DHT22;3006;50.956;7.002;2022-12-18T06:45:58;-3.30;99.90
5960;DHT22;3006;50.956;7.002;2022-12-18T06:48:27;-3.30;99.90
5960;DHT22;3006;50.956;7.002;2022-12-18T06:50:55;-3.30;99.90
5960;DHT22;3006;50.956;7.002;2022-12-18T06:53:24;-3.20;99.90
5960;DHT22;3006;50.956;7.002;2022-12-18T06:55:52;-3.20;99.90
5960;DHT22;3006;50.956;7.002;2022-12-18T06:58:22;-3.20;99.90
5960;DHT22;3006;50.956;7.002;2022-12-18T07:00:50;-3.20;99.90
5960;DHT22;3006;50.956;7.002;2022-12-18T07:03:18;-3.20;99.90
5960;DHT22;3006;50.956;7.002;2022-12-18T07:05:46;-3.30;99.90
5960;DHT22;3006;50.956;7.002;2022-12-18T07:08:14;-3.20;99.90
5960;DHT22;3006;50.956;7.002;2022-12-18T07:10:42;-3.20;99.90
5960;DHT22;3006;50.956;7.002;2022-12-18T07:13:15;-3.30;99.90
5960;DHT22;3006;50.956;7.002;2022-12-18T07:15:45;-3.30;99.90
5960;DHT22;3006;50.956;7.002;2022-12-18T07:18:13;-3.20;99.90
5960;DHT22;3006;50.956;7.002;2022-12-18T07:20:41;-3.30;99.90
5960;DHT22;3006;50.956;7.002;2022-12-18T07:23:09;-3.20;99.90
5960;DHT22;3006;50.956;7.002;2022-12-18T07:25:37;-3.20;99.90
5960;DHT22;3006;50.956;7.002;2022-12-18T07:28:06;-3.30;99.90
5960;DHT22;3006;50.956;7.002;2022-12-18T07:30:41;-3.20;99.90
5960;DHT22;3006;50.956;7.002;2022-12-18T07:33:10;-3.20;99.90
5960;DHT22;3006;50.956;7.002;2022-12-18T07:35:38;-3.10;99.90
5960;DHT22;3006;50.956;7.002;2022-12-18T07:38:06;-3.20;99.90
5960;DHT22;3006;50.956;7.002;2022-12-18T07:40:34;-3.20;99.90
5960;DHT22;3006;50.956;7.002;2022-12-18T07:43:02;-3.20;99.90
5960;DHT22;3006;50.956;7.002;2022-12-18T07:45:30;-3.30;99.90
5960;DHT22;3006;50.956;7.002;2022-12-18T07:47:58;-3.30;99.90
5960;DHT22;3006;50.956;7.002;2022-12-18T07:50:28;-3.40;99.90
5960;DHT22;3006;50.956;7.002;2022-12-18T07:52:56;-3.40;99.90
5960;DHT22;3006;50.956;7.002;2022-12-18T07:55:24;-3.30;99.90
5960;DHT22;3006;50.956;7.002;2022-12-18T07:57:52;-3.30;99.90
5960;DHT22;3006;50.956;7.002;2022-12-18T08:00:26;-3.20;99.90
5960;DHT22;3006;50.956;7.002;2022-12-18T08:02:54;-3.10;99.90
5960;DHT22;3006;50.956;7.002;2022-12-18T08:05:23;-3.10;99.90
5960;DHT22;3006;50.956;7.002;2022-12-18T08:07:52;-3.10;99.90
5960;DHT22;3006;50.956;7.002;2022-12-18T08:10:20;-3.10;99.90
5960;DHT22;3006;50.956;7.002;2022-12-18T08:12:49;-3.10;99.90
5960;DHT22;3006;50.956;7.002;2022-12-18T08:15:17;-3.10;99.90
5960;DHT22;3006;50.956;7.002;2022-12-18T08:17:45;-3.10;99.90
5960;DHT22;3006;50.956;7.002;2022-12-18T08:20:13;-3.00;99.90
5960;DHT22;3006;50.956;7.002;2022-12-18T08:22:41;-3.00;99.90
5960;DHT22;3006;50.956;7.002;2022-12-18T08:25:11;-3.00;99.90
5960;DHT22;3006;50.956;7.002;2022-12-18T08:27:39;-2.90;99.90
5960;DHT22;3006;50.956;7.002;2022-12-18T08:30:08;-2.90;99.90
5960;DHT22;3006;50.956;7.002;2022-12-18T08:32:36;-2.80;99.90
5960;DHT22;3006;50.956;7.002;2022-12-18T08:35:05;-2.70;99.90
5960;DHT22;3006;50.956;7.002;2022-12-18T08:37:34;-2.60;99.90
5960;DHT22;3006;50.956;7.002;2022-12-18T08:40:03;-2.50;99.90
5960;DHT22;3006;50.956;7.002;2022-12-18T08:42:32;-2.50;99.90
5960;DHT22;3006;50.956;7.002;2022-12-18T08:45:18;-2.40;99.90
5960;DHT22;3006;50.956;7.002;2022-12-18T08:47:46;-2.40;99.90
5960;DHT22;3006;50.956;7.002;2022-12-18T08:50:14;-2.40;99.90
5960;DHT22;3006;50.956;7.002;2022-12-18T08:52:43;-2.30;99.90
5960;DHT22;3006;50.956;7.002;2022-12-18T08:55:12;-2.30;99.90
5960;DHT22;3006;50.956;7.002;2022-12-18T08:57:42;-2.30;99.90
5960;DHT22;3006;50.956;7.002;2022-12-18T09:00:11;-2.20;99.90
5960;DHT22;3006;50.956;7.002;2022-12-18T09:02:40;-2.10;99.90
5960;DHT22;3006;50.956;7.002;2022-12-18T09:05:09;-2.00;99.90
5960;DHT22;3006;50.956;7.002;2022-12-18T09:07:37;-2.00;99.90
5960;DHT22;3006;50.956;7.002;2022-12-18T09:10:06;-2.00;99.90
5960;DHT22;3006;50.956;7.002;2022-12-18T09:12:34;-2.00;99.90
5960;DHT22;3006;50.956;7.002;2022-12-18T09:15:04;-2.00;99.90
5960;DHT22;3006;50.956;7.002;2022-12-18T09:17:32;-1.90;99.90
5960;DHT22;3006;50.956;7.002;2022-12-18T09:20:00;-1.90;99.90
5960;DHT22;3006;50.956;7.002;2022-12-18T09:22:28;-1.80;99.90
5960;DHT22;3006;50.956;7.002;2022-12-18T09:24:56;-1.80;99.90
5960;DHT22;3006;50.956;7.002;2022-12-18T09:27:24;-1.70;99.90
5960;DHT22;3006;50.956;7.002;2022-12-18T09:29:52;-1.70;99.90
5960;DHT22;3006;50.956;7.002;2022-12-18T09:32:21;-1.70;99.90
5960;DHT22;3006;50.956;7.002;2022-12-18T09:34:49;-1.60;99.90
5960;DHT22;3006;50.956;7.002;2022-12-18T09:37:17;-1.50;99.90
5960;DHT22;3006;50.956;7.002;2022-12-18T09:39:45;-1.40;99.90
5960;DHT22;3006;50.956;7.002;2022-12-18T09:42:17;-1.40;99.90
5960;DHT22;3006;50.956;7.002;2022-12-18T09:44:50;-1.30;99.90
5960;DHT22;3006;50.956;7.002;2022-12-18T09:47:22;-1.20;99.90
5960;DHT22;3006;50.956;7.002;2022-12-18T09:49:53;-1.10;99.90
5960;DHT22;3006;50.956;7.002;2022-12-18T09:52:26;-1.10;99.90
5960;DHT22;3006;50.956;7.002;2022-12-18T09:54:59;-1.00;99.90
5960;DHT22;3006;50.956;7.002;2022-12-18T09:57:30;-1.00;99.90
5960;DHT22;3006;50.956;7.002;2022-12-18T10:00:04;-0.90;99.90
5960;DHT22;3006;50.956;7.002;2022-12-18T10:02:38;-0.80;99.90
5960;DHT22;3006;50.956;7.002;2022-12-18T10:05:07;-0.80;99.90
5960;DHT22;3006;50.956;7.002;2022-12-18T10:07:50;-0.70;99.90
5960;DHT22;3006;50.956;7.002;2022-12-18T10:10:27;-0.70;99.90
5960;DHT22;3006;50.956;7.002;2022-12-18T10:13:01;-0.70;99.90
5960;DHT22;3006;50.956;7.002;2022-12-18T10:15:35;-0.60;99.90
5960;DHT22;3006;50.956;7.002;2022-12-18T10:18:16;-0.60;99.90
5960;DHT22;3006;50.956;7.002;2022-12-18T10:20:49;-0.50;99.90
5960;DHT22;3006;50.956;7.002;2022-12-18T10:23:23;-0.50;99.90
5960;DHT22;3006;50.956;7.002;2022-12-18T10:25:55;-0.40;99.90
5960;DHT22;3006;50.956;7.002;2022-12-18T10:28:26;-0.40;99.90
5960;DHT22;3006;50.956;7.002;2022-12-18T10:30:54;-0.30;99.90
5960;DHT22;3006;50.956;7.002;2022-12-18T10:33:28;-0.30;99.90
5960;DHT22;3006;50.956;7.002;2022-12-18T10:35:56;-0.20;99.90
5960;DHT22;3006;50.956;7.002;2022-12-18T10:38:26;-0.20;99.90
5960;DHT22;3006;50.956;7.002;2022-12-18T10:40:55;-0.10;99.90
5960;DHT22;3006;50.956;7.002;2022-12-18T10:43:26;-0.10;99.90
5960;DHT22;3006;50.956;7.002;2022-12-18T10:46:17;-0.10;99.90
5960;DHT22;3006;50.956;7.002;2022-12-18T10:48:52;0.00;99.90
5960;DHT22;3006;50.956;7.002;2022-12-18T10:51:23;0.00;99.90
5960;DHT22;3006;50.956;7.002;2022-12-18T10:53:55;0.00;99.90
5960;DHT22;3006;50.956;7.002;2022-12-18T10:56:26;0.00;99.90
5960;DHT22;3006;50.956;7.002;2022-12-18T10:59:00;0.10;99.90
5960;DHT22;3006;50.956;7.002;2022-12-18T11:01:45;0.10;99.90
5960;DHT22;3006;50.956;7.002;2022-12-18T11:04:19;0.10;99.90
5960;DHT22;3006;50.956;7.002;2022-12-18T11:06:56;0.10;99.90
5960;DHT22;3006;50.956;7.002;2022-12-18T11:09:27;0.20;99.90
5960;DHT22;3006;50.956;7.002;2022-12-18T11:11:58;0.20;99.90
5960;DHT22;3006;50.956;7.002;2022-12-18T11:14:28;0.20;99.90
5960;DHT22;3006;50.956;7.002;2022-12-18T11:16:58;0.20;99.90
5960;DHT22;3006;50.956;7.002;2022-12-18T11:19:55;0.20;99.90
5960;DHT22;3006;50.956;7.002;2022-12-18T11:22:25;0.30;99.90
5960;DHT22;3006;50.956;7.002;2022-12-18T11:24:57;0.30;99.90
5960;DHT22;3006;50.956;7.002;2022-12-18T11:27:51;0.20;99.90
5960;DHT22;3006;50.956;7.002;2022-12-18T11:30:26;0.30;99.90
5960;DHT22;3006;50.956;7.002;2022-12-18T11:33:03;0.30;99.90
5960;DHT22;3006;50.956;7.002;2022-12-18T11:35:40;0.30;99.90
5960;DHT22;3006;50.956;7.002;2022-12-18T11:38:19;0.30;99.90
5960;DHT22;3006;50.956;7.002;2022-12-18T11:40:54;0.30;99.90
5960;DHT22;3006;50.956;7.002;2022-12-18T11:43:27;0.40;99.90
5960;DHT22;3006;50.956;7.002;2022-12-18T11:46:00;0.30;99.90
5960;DHT22;3006;50.956;7.002;2022-12-18T11:48:33;0.40;99.90
5960;DHT22;3006;50.956;7.002;2022-12-18T11:51:11;0.40;99.90
5960;DHT22;3006;50.956;7.002;2022-12-18T11:53:41;0.40;99.90
5960;DHT22;3006;50.956;7.002;2022-12-18T11:56:26;0.30;99.90
5960;DHT22;3006;50.956;7.002;2022-12-18T11:59:03;0.30;99.90
5960;DHT22;3006;50.956;7.002;2022-12-18T12:01:43;0.30;99.90
5960;DHT22;3006;50.956;7.002;2022-12-18T12:07:33;0.30;99.90
5960;DHT22;3006;50.956;7.002;2022-12-18T12:10:12;0.30;99.90
5960;DHT22;3006;50.956;7.002;2022-12-18T12:12:55;0.20;99.90
5960;DHT22;3006;50.956;7.002;2022-12-18T12:15:34;0.30;99.90
5960;DHT22;3006;50.956;7.002;2022-12-18T12:18:13;0.20;99.90
5960;DHT22;3006;50.956;7.002;2022-12-18T12:20:49;0.30;99.90
5960;DHT22;3006;50.956;7.002;2022-12-18T12:23:29;0.20;99.90
5960;DHT22;3006;50.956;7.002;2022-12-18T12:26:04;0.30;99.90
5960;DHT22;3006;50.956;7.002;2022-12-18T12:28:49;0.30;99.90
5960;DHT22;3006;50.956;7.002;2022-12-18T12:31:29;0.20;99.90
5960;DHT22;3006;50.956;7.002;2022-12-18T12:34:07;0.30;99.90
5960;DHT22;3006;50.956;7.002;2022-12-18T12:36:46;0.30;99.90
5960;DHT22;3006;50.956;7.002;2022-12-18T12:39:23;0.30;99.90
5960;DHT22;3006;50.956;7.002;2022-12-18T12:41:55;0.20;99.90
5960;DHT22;3006;50.956;7.002;2022-12-18T12:44:43;0.30;99.90
5960;DHT22;3006;50.956;7.002;2022-12-18T12:47:23;0.30;99.90
5960;DHT22;3006;50.956;7.002;2022-12-18T12:49:53;0.30;99.90
5960;DHT22;3006;50.956;7.002;2022-12-18T12:52:28;0.30;99.90
5960;DHT22;3006;50.956;7.002;2022-12-18T12:55:00;0.30;99.90
5960;DHT22;3006;50.956;7.002;2022-12-18T12:57:34;0.40;99.90
5960;DHT22;3006;50.956;7.002;2022-12-18T13:00:08;0.30;99.90
5960;DHT22;3006;50.956;7.002;2022-12-18T13:02:44;0.30;99.90
5960;DHT22;3006;50.956;7.002;2022-12-18T13:05:19;0.30;99.90
5960;DHT22;3006;50.956;7.002;2022-12-18T13:07:51;0.40;99.90
5960;DHT22;3006;50.956;7.002;2022-12-18T13:10:30;0.40;99.90
5960;DHT22;3006;50.956;7.002;2022-12-18T13:13:00;0.40;99.90
5960;DHT22;3006;50.956;7.002;2022-12-18T13:15:37;0.40;99.90
5960;DHT22;3006;50.956;7.002;2022-12-18T13:18:21;0.50;99.90
5960;DHT22;3006;50.956;7.002;2022-12-18T13:20:53;0.50;99.90
5960;DHT22;3006;50.956;7.002;2022-12-18T13:23:33;0.50;99.90
5960;DHT22;3006;50.956;7.002;2022-12-18T13:29:04;0.50;99.90
5960;DHT22;3006;50.956;7.002;2022-12-18T13:34:29;0.50;99.90
5960;DHT22;3006;50.956;7.002;2022-12-18T13:40:00;0.50;99.90
5960;DHT22;3006;50.956;7.002;2022-12-18T13:42:40;0.50;99.90
5960;DHT22;3006;50.956;7.002;2022-12-18T13:45:45;0.50;99.90
5960;DHT22;3006;50.956;7.002;2022-12-18T13:48:21;0.50;99.90
5960;DHT22;3006;50.956;7.002;2022-12-18T13:50:57;0.50;99.90
5960;DHT22;3006;50.956;7.002;2022-12-18T13:53:29;0.40;99.90
5960;DHT22;3006;50.956;7.002;2022-12-18T13:55:58;0.50;99.90
5960;DHT22;3006;50.956;7.002;2022-12-18T13:58:26;0.40;99.90
5960;DHT22;3006;50.956;7.002;2022-12-18T14:00:56;0.30;99.90
5960;DHT22;3006;50.956;7.002;2022-12-18T14:03:27;0.30;99.90
5960;DHT22;3006;50.956;7.002;2022-12-18T14:06:04;0.30;99.90
5960;DHT22;3006;50.956;7.002;2022-12-18T14:08:38;0.20;99.90
5960;DHT22;3006;50.956;7.002;2022-12-18T14:11:18;0.30;99.90
5960;DHT22;3006;50.956;7.002;2022-12-18T14:13:48;0.20;99.90
5960;DHT22;3006;50.956;7.002;2022-12-18T14:16:18;0.20;99.90
5960;DHT22;3006;50.956;7.002;2022-12-18T14:18:48;0.20;99.90
5960;DHT22;3006;50.956;7.002;2022-12-18T14:21:22;0.20;99.90
5960;DHT22;3006;50.956;7.002;2022-12-18T14:24:04;0.20;99.90
5960;DHT22;3006;50.956;7.002;2022-12-18T14:26:32;0.10;99.90
5960;DHT22;3006;50.956;7.002;2022-12-18T14:29:17;0.10;99.90
5960;DHT22;3006;50.956;7.002;2022-12-18T14:32:04;0.10;99.90
5960;DHT22;3006;50.956;7.002;2022-12-18T14:34:37;0.10;99.90
5960;DHT22;3006;50.956;7.002;2022-12-18T14:37:08;0.10;99.90
5960;DHT22;3006;50.956;7.002;2022-12-18T14:39:36;0.00;99.90
5960;DHT22;3006;50.956;7.002;2022-12-18T14:42:05;0.00;99.90
5960;DHT22;3006;50.956;7.002;2022-12-18T14:44:33;0.00;99.90
5960;DHT22;3006;50.956;7.002;2022-12-18T14:47:22;0.00;99.90
5960;DHT22;3006;50.956;7.002;2022-12-18T14:49:50;0.00;99.90
5960;DHT22;3006;50.956;7.002;2022-12-18T14:52:23;0.00;99.90
5960;DHT22;3006;50.956;7.002;2022-12-18T14:54:54;0.00;99.90
5960;DHT22;3006;50.956;7.002;2022-12-18T14:57:24;0.00;99.90
5960;DHT22;3006;50.956;7.002;2022-12-18T14:59:53;-0.10;99.90
5960;DHT22;3006;50.956;7.002;2022-12-18T15:02:23;-0.10;99.90
5960;DHT22;3006;50.956;7.002;2022-12-18T15:05:00;-0.10;99.90
5960;DHT22;3006;50.956;7.002;2022-12-18T15:07:40;-0.10;99.90
5960;DHT22;3006;50.956;7.002;2022-12-18T15:10:12;-0.10;99.90
5960;DHT22;3006;50.956;7.002;2022-12-18T15:12:43;-0.10;99.90
5960;DHT22;3006;50.956;7.002;2022-12-18T15:15:46;-0.10;99.90
5960;DHT22;3006;50.956;7.002;2022-12-18T15:18:18;-0.10;99.90
5960;DHT22;3006;50.956;7.002;2022-12-18T15:20:48;-0.10;99.90
5960;DHT22;3006;50.956;7.002;2022-12-18T15:23:19;-0.20;99.90
5960;DHT22;3006;50.956;7.002;2022-12-18T15:25:54;-0.20;99.90
5960;DHT22;3006;50.956;7.002;2022-12-18T15:28:24;-0.20;99.90
5960;DHT22;3006;50.956;7.002;2022-12-18T15:31:05;-0.20;99.90
5960;DHT22;3006;50.956;7.002;2022-12-18T15:33:36;-0.20;99.90
5960;DHT22;3006;50.956;7.002;2022-12-18T15:36:08;-0.20;99.90
5960;DHT22;3006;50.956;7.002;2022-12-18T15:38:37;-0.20;99.90
5960;DHT22;3006;50.956;7.002;2022-12-18T15:41:05;-0.20;99.90
5960;DHT22;3006;50.956;7.002;2022-12-18T15:43:39;-0.30;99.90
5960;DHT22;3006;50.956;7.002;2022-12-18T15:46:12;-0.30;99.90
5960;DHT22;3006;50.956;7.002;2022-12-18T15:48:44;-0.30;99.90
5960;DHT22;3006;50.956;7.002;2022-12-18T15:51:17;-0.40;99.90
5960;DHT22;3006;50.956;7.002;2022-12-18T15:53:47;-0.40;99.90
5960;DHT22;3006;50.956;7.002;2022-12-18T15:56:16;-0.40;99.90
5960;DHT22;3006;50.956;7.002;2022-12-18T15:59:09;-0.40;99.90
5960;DHT22;3006;50.956;7.002;2022-12-18T16:01:39;-0.40;99.90
5960;DHT22;3006;50.956;7.002;2022-12-18T16:04:11;-0.40;99.90
5960;DHT22;3006;50.956;7.002;2022-12-18T16:06:45;-0.40;99.90
5960;DHT22;3006;50.956;7.002;2022-12-18T16:09:33;-0.40;99.90
5960;DHT22;3006;50.956;7.002;2022-12-18T16:12:01;-0.40;99.90
5960;DHT22;3006;50.956;7.002;2022-12-18T16:14:31;-0.40;99.90
5960;DHT22;3006;50.956;7.002;2022-12-18T16:17:01;-0.40;99.90
5960;DHT22;3006;50.956;7.002;2022-12-18T16:19:30;-0.40;99.90
5960;DHT22;3006;50.956;7.002;2022-12-18T16:21:58;-0.50;99.90
5960;DHT22;3006;50.956;7.002;2022-12-18T16:24:28;-0.50;99.90
5960;DHT22;3006;50.956;7.002;2022-12-18T16:26:58;-0.50;99.90
5960;DHT22;3006;50.956;7.002;2022-12-18T16:29:27;-0.50;99.90
5960;DHT22;3006;50.956;7.002;2022-12-18T16:31:57;-0.50;99.90
5960;DHT22;3006;50.956;7.002;2022-12-18T16:34:27;-0.40;99.90
5960;DHT22;3006;50.956;7.002;2022-12-18T16:36:58;-0.50;99.90
5960;DHT22;3006;50.956;7.002;2022-12-18T16:39:32;-0.50;99.90
5960;DHT22;3006;50.956;7.002;2022-12-18T16:42:01;-0.50;99.90
5960;DHT22;3006;50.956;7.002;2022-12-18T16:44:32;-0.50;99.90
5960;DHT22;3006;50.956;7.002;2022-12-18T16:47:00;-0.50;99.90